West Texas City, Texas
Current Conditions -  °F | °C
As of 4:52 PM on Thursday 23 Oct 2014 (Local Time) from KGLS Reporting Station
Clear Clear  
Wind Chill: 76°   Ceiling: Unl
Heat Index: 76°   Visibility: 10mi
Dew Point: 56°   Wind: 13mph
Humidity: 50%   Direction: 360°N
Pressure: 30.06"   Gusts: NA
Location:  29.4192°N, 94.9833°W
Report Text: KGLS 232152Z 36011KT 10SM CLR 24/13 A3006 RMK AO2 SLP179 T02440133
Loading
Personal Weather Stations






























Interactive Weather Map
Tropical Storm Tracking
New forecast layout! Learn more

10-Day Weather Forecast

Advertisements
Track Severe Weather on mobile